createdAt,value
2022-09-03T00:00:32.801Z,13.49
2022-09-03T00:02:59.175Z,13.36
2022-09-03T00:05:43.306Z,13.40
2022-09-03T00:08:12.616Z,13.44
2022-09-03T00:10:45.474Z,13.55
2022-09-03T00:13:19.729Z,13.35
2022-09-03T00:15:46.239Z,13.27
2022-09-03T00:18:21.230Z,13.51
2022-09-03T00:20:54.131Z,13.38
2022-09-03T00:23:22.952Z,13.23
2022-09-03T00:25:52.286Z,13.21
2022-09-03T00:28:29.862Z,13.48
2022-09-03T00:31:11.031Z,13.60
2022-09-03T00:33:39.823Z,13.66
2022-09-03T00:36:16.491Z,13.72
2022-09-03T00:38:42.952Z,13.75
2022-09-03T00:41:24.731Z,13.90
2022-09-03T00:43:54.184Z,13.90
2022-09-03T00:46:27.210Z,13.91
2022-09-03T00:49:12.441Z,13.97
2022-09-03T00:51:50.584Z,14.05
2022-09-03T00:54:22.951Z,14.02
2022-09-03T00:56:52.356Z,14.06
2022-09-03T00:59:21.731Z,14.14
2022-09-03T01:02:07.100Z,14.08
2022-09-03T01:04:52.131Z,14.04
2022-09-03T01:07:32.946Z,14.10
2022-09-03T01:10:02.375Z,14.14
2022-09-03T01:12:41.700Z,14.13
2022-09-03T01:15:10.816Z,14.03
2022-09-03T01:17:51.896Z,13.91
2022-09-03T01:20:35.463Z,14.08
2022-09-03T01:23:14.327Z,13.90
2022-09-03T01:25:44.865Z,13.90
2022-09-03T01:28:11.892Z,13.79
2022-09-03T01:30:41.190Z,13.77
2022-09-03T01:33:07.827Z,13.82
2022-09-03T01:35:43.935Z,13.78
2022-09-03T01:38:29.354Z,13.60
2022-09-03T01:41:18.700Z,13.58
2022-09-03T01:43:50.966Z,13.38
2022-09-03T01:46:24.375Z,13.45
2022-09-03T01:49:01.740Z,13.58
2022-09-03T01:51:29.502Z,13.40
2022-09-03T01:53:58.807Z,13.56
2022-09-03T01:56:40.652Z,13.45
2022-09-03T01:59:22.253Z,13.26
2022-09-03T02:02:07.778Z,13.28
2022-09-03T02:04:34.245Z,13.40
2022-09-03T02:07:01.386Z,13.42
2022-09-03T02:09:32.492Z,13.26
2022-09-03T02:12:07.865Z,13.32
2022-09-03T02:14:35.403Z,13.33
2022-09-03T02:17:02.084Z,13.36
2022-09-03T02:19:30.027Z,13.20
2022-09-03T02:21:57.328Z,13.19
2022-09-03T02:24:24.462Z,13.09
2022-09-03T02:26:50.971Z,13.19
2022-09-03T02:29:17.553Z,13.09
2022-09-03T02:31:44.651Z,13.13
2022-09-03T02:34:11.134Z,13.15
2022-09-03T02:36:40.099Z,13.28
2022-09-03T02:39:06.852Z,13.32
2022-09-03T02:41:33.277Z,13.36
2022-09-03T02:44:04.809Z,13.29
2022-09-03T02:46:43.530Z,13.44
2022-09-03T02:49:09.930Z,13.41
2022-09-03T02:51:37.919Z,13.49
2022-09-03T02:54:04.591Z,13.34
2022-09-03T02:56:30.970Z,13.38
2022-09-03T02:58:57.438Z,13.42
2022-09-03T03:01:24.372Z,13.32
2022-09-03T03:03:50.932Z,13.39
2022-09-03T03:06:20.327Z,13.49
2022-09-03T03:08:47.362Z,13.37
2022-09-03T03:11:18.314Z,13.29
2022-09-03T03:13:47.780Z,13.20
2022-09-03T03:16:15.173Z,13.29
2022-09-03T03:18:42.259Z,13.33
2022-09-03T03:21:10.449Z,13.30
2022-09-03T03:23:37.521Z,13.38
2022-09-03T03:26:08.536Z,13.29
2022-09-03T03:28:35.519Z,13.24
2022-09-03T03:31:07.868Z,13.07
2022-09-03T03:33:34.534Z,13.20
2022-09-03T03:36:05.372Z,13.13
2022-09-03T03:38:31.818Z,13.13
2022-09-03T03:40:58.438Z,13.19
2022-09-03T03:43:24.812Z,13.09
2022-09-03T03:45:58.348Z,13.07
2022-09-03T03:48:25.739Z,13.02
2022-09-03T03:50:52.724Z,12.95
2022-09-03T03:53:19.446Z,12.82
2022-09-03T03:55:56.139Z,12.95
2022-09-03T03:58:23.079Z,12.85
2022-09-03T04:00:50.338Z,12.77
2022-09-03T04:03:16.706Z,12.93
2022-09-03T04:05:46.285Z,12.86
2022-09-03T04:08:15.149Z,12.81
2022-09-03T04:10:41.498Z,12.94
2022-09-03T04:13:07.843Z,12.81
2022-09-03T04:15:34.886Z,12.89
2022-09-03T04:18:01.222Z,12.87
2022-09-03T04:20:27.570Z,12.82
2022-09-03T04:22:53.917Z,12.82
2022-09-03T04:25:20.269Z,12.80
2022-09-03T04:27:46.617Z,12.68
2022-09-03T04:30:13.116Z,12.66
2022-09-03T04:32:54.554Z,12.67
2022-09-03T04:35:21.288Z,12.64
2022-09-03T04:37:47.678Z,12.66
2022-09-03T04:40:14.252Z,12.65
2022-09-03T04:42:41.077Z,12.74
2022-09-03T04:45:08.421Z,12.75
2022-09-03T04:47:37.133Z,12.78
2022-09-03T04:50:06.578Z,12.76
2022-09-03T04:52:33.248Z,12.89
2022-09-03T04:54:59.633Z,12.79
2022-09-03T04:57:26.634Z,12.87
2022-09-03T04:59:52.969Z,12.93
2022-09-03T05:02:21.553Z,12.93
2022-09-03T05:04:47.969Z,13.07
2022-09-03T05:07:14.613Z,13.02
2022-09-03T05:09:40.975Z,13.11
2022-09-03T05:12:07.487Z,13.05
2022-09-03T05:14:33.849Z,13.09
2022-09-03T05:17:00.294Z,12.99
2022-09-03T05:19:26.689Z,13.01
2022-09-03T05:21:53.098Z,13.03
2022-09-03T05:24:19.503Z,13.06
2022-09-03T05:26:45.881Z,13.15
2022-09-03T05:29:12.353Z,13.10
2022-09-03T05:31:39.315Z,13.10
2022-09-03T05:34:06.100Z,13.12
2022-09-03T05:36:36.308Z,13.19
2022-09-03T05:39:03.883Z,13.12
2022-09-03T05:41:31.799Z,13.12
2022-09-03T05:44:00.974Z,13.13
2022-09-03T05:46:32.045Z,13.15
2022-09-03T05:49:03.553Z,13.13
2022-09-03T05:51:30.544Z,13.15
2022-09-03T05:53:57.489Z,13.21
2022-09-03T05:56:25.070Z,13.19
2022-09-03T05:58:52.664Z,13.29
2022-09-03T06:01:23.176Z,13.34
2022-09-03T06:03:58.182Z,13.43
2022-09-03T06:06:25.555Z,13.43
2022-09-03T06:08:55.688Z,13.50
2022-09-03T06:11:28.157Z,13.45
2022-09-03T06:13:58.121Z,13.30
2022-09-03T06:16:30.698Z,13.37
2022-09-03T06:18:58.849Z,13.46
2022-09-03T06:21:25.191Z,13.55
2022-09-03T06:23:52.744Z,13.46
2022-09-03T06:26:20.279Z,13.59
2022-09-03T06:28:48.354Z,13.73
2022-09-03T06:31:16.261Z,13.75
2022-09-03T06:33:43.396Z,13.71
2022-09-03T06:36:14.044Z,13.78
2022-09-03T06:38:41.079Z,13.99
2022-09-03T06:41:08.655Z,14.01
2022-09-03T06:43:37.223Z,13.89
2022-09-03T06:46:09.479Z,13.87
2022-09-03T06:48:36.747Z,13.68
2022-09-03T06:51:07.518Z,13.77
2022-09-03T06:53:38.051Z,14.06
2022-09-03T06:56:07.793Z,14.21
2022-09-03T06:58:38.559Z,14.14
2022-09-03T07:01:09.663Z,14.39
2022-09-03T07:03:36.725Z,14.44
2022-09-03T07:06:14.178Z,14.48
2022-09-03T07:08:41.808Z,14.61
2022-09-03T07:11:10.286Z,14.62
2022-09-03T07:13:37.169Z,14.76
2022-09-03T07:16:05.048Z,14.75
2022-09-03T07:18:31.796Z,14.85
2022-09-03T07:21:02.588Z,14.90
2022-09-03T07:23:31.179Z,14.96
2022-09-03T07:25:59.089Z,15.06
2022-09-03T07:28:26.000Z,15.14
2022-09-03T07:30:53.040Z,15.16
2022-09-03T07:33:19.460Z,15.22
2022-09-03T07:35:46.595Z,15.22
2022-09-03T07:38:17.480Z,15.30
2022-09-03T07:40:43.820Z,15.29
2022-09-03T07:43:10.526Z,15.34
2022-09-03T07:45:37.412Z,15.36
2022-09-03T07:48:05.494Z,15.34
2022-09-03T07:50:37.653Z,15.38
2022-09-03T07:53:04.026Z,15.38
2022-09-03T07:55:30.612Z,15.42
2022-09-03T07:57:57.105Z,15.48
2022-09-03T08:00:23.520Z,15.56
2022-09-03T08:02:51.300Z,15.53
2022-09-03T08:05:21.569Z,15.62
2022-09-03T08:07:48.360Z,15.61
2022-09-03T08:10:16.511Z,15.59
2022-09-03T08:12:42.871Z,15.72
2022-09-03T08:15:09.262Z,15.73
2022-09-03T08:17:35.639Z,15.74
2022-09-03T08:20:03.796Z,15.79
2022-09-03T08:22:30.156Z,15.87
2022-09-03T08:24:56.501Z,15.93
2022-09-03T08:27:25.354Z,15.96
2022-09-03T08:29:51.695Z,15.98
2022-09-03T08:32:18.094Z,16.06
2022-09-03T08:34:44.481Z,16.07
2022-09-03T08:37:12.532Z,16.14
2022-09-03T08:39:39.475Z,16.20
2022-09-03T08:42:13.021Z,16.22
2022-09-03T08:44:39.917Z,16.25
2022-09-03T08:47:09.448Z,16.30
2022-09-03T08:49:55.253Z,16.36
2022-09-03T08:52:28.591Z,16.41
2022-09-03T08:54:59.556Z,16.50
2022-09-03T08:57:26.083Z,16.52
2022-09-03T08:59:54.631Z,16.56
2022-09-03T09:02:36.635Z,16.64
2022-09-03T09:05:03.036Z,16.67
2022-09-03T09:07:45.994Z,16.74
2022-09-03T09:10:16.456Z,16.80
2022-09-03T09:13:01.519Z,16.83
2022-09-03T09:15:46.705Z,16.91
2022-09-03T09:18:28.173Z,16.94
2022-09-03T09:21:09.470Z,16.99
2022-09-03T09:23:37.817Z,17.04
2022-09-03T09:26:10.723Z,17.09
2022-09-03T09:28:38.471Z,17.11
2022-09-03T09:31:07.800Z,17.13
2022-09-03T09:33:34.588Z,17.13
2022-09-03T09:36:03.167Z,17.14
2022-09-03T09:38:30.817Z,17.15
2022-09-03T09:41:07.990Z,17.20
2022-09-03T09:43:34.907Z,17.27
2022-09-03T09:46:06.716Z,17.28
2022-09-03T09:48:37.603Z,17.30
2022-09-03T09:51:09.053Z,17.30
2022-09-03T09:53:35.500Z,17.27
2022-09-03T09:56:04.849Z,17.34
2022-09-03T09:58:32.990Z,17.38
2022-09-03T10:01:13.437Z,17.35
2022-09-03T10:03:55.179Z,17.36
2022-09-03T10:06:44.491Z,17.40
2022-09-03T10:09:10.900Z,17.42
2022-09-03T10:11:40.411Z,17.40
2022-09-03T10:14:25.095Z,17.39
2022-09-03T10:16:57.263Z,17.38
2022-09-03T10:19:30.703Z,17.42
2022-09-03T10:22:07.664Z,17.23
2022-09-03T10:24:40.252Z,17.31
2022-09-03T10:27:09.589Z,17.34
2022-09-03T10:29:40.699Z,17.38
2022-09-03T10:32:16.645Z,17.36
2022-09-03T10:34:46.070Z,17.37
2022-09-03T10:37:26.088Z,17.40
2022-09-03T10:40:00.819Z,17.45
2022-09-03T10:42:37.265Z,17.46
2022-09-03T10:45:15.837Z,17.53
2022-09-03T10:47:51.273Z,17.66
2022-09-03T10:50:23.224Z,17.69
2022-09-03T10:53:07.863Z,17.65
2022-09-03T10:55:46.677Z,17.72
2022-09-03T10:58:23.666Z,17.77
2022-09-03T11:00:53.680Z,17.80
2022-09-03T11:03:40.041Z,17.83
2022-09-03T11:06:10.438Z,17.89
2022-09-03T11:08:36.761Z,17.89
2022-09-03T11:11:16.928Z,17.42
2022-09-03T11:13:49.108Z,17.74
2022-09-03T11:16:18.215Z,17.83
2022-09-03T11:18:47.006Z,17.95
2022-09-03T11:21:14.792Z,18.04
2022-09-03T11:23:42.224Z,18.08
2022-09-03T11:26:12.668Z,18.09
2022-09-03T11:28:48.148Z,18.15
2022-09-03T11:31:33.636Z,18.15
2022-09-03T11:34:05.340Z,18.18
2022-09-03T11:36:33.273Z,18.14
2022-09-03T11:39:00.528Z,18.21
2022-09-03T11:41:28.141Z,18.24
2022-09-03T11:43:54.710Z,18.25
2022-09-03T11:46:21.586Z,18.27
2022-09-03T11:48:49.222Z,18.31
2022-09-03T11:51:33.276Z,18.28
2022-09-03T11:54:04.857Z,18.35
2022-09-03T11:56:31.992Z,18.33
2022-09-03T11:59:00.093Z,18.39
2022-09-03T12:01:28.243Z,18.34
2022-09-03T12:03:59.610Z,18.33
2022-09-03T12:06:44.524Z,18.35
2022-09-03T12:09:26.481Z,18.34
2022-09-03T12:12:01.825Z,18.37
2022-09-03T12:14:41.262Z,18.38
2022-09-03T12:17:13.750Z,18.39
2022-09-03T12:19:41.929Z,18.40
2022-09-03T12:22:15.923Z,18.34
2022-09-03T12:24:44.365Z,18.37
2022-09-03T12:27:13.404Z,18.45
2022-09-03T12:29:50.199Z,18.45
2022-09-03T12:32:17.379Z,18.46
2022-09-03T12:34:43.716Z,18.45
2022-09-03T12:40:18.784Z,18.42
2022-09-03T12:42:45.228Z,18.40
2022-09-03T12:45:15.601Z,18.47
2022-09-03T12:47:42.607Z,18.45
2022-09-03T12:50:14.224Z,18.42
2022-09-03T12:52:46.688Z,18.43
2022-09-03T12:55:31.844Z,18.47
2022-09-03T12:58:02.634Z,18.48
2022-09-03T13:00:30.297Z,18.50
2022-09-03T13:03:00.565Z,18.56
2022-09-03T13:05:34.437Z,18.56
2022-09-03T13:08:05.420Z,18.59
2022-09-03T13:10:34.065Z,18.64
2022-09-03T13:13:09.668Z,18.66
2022-09-03T13:15:36.261Z,18.68
2022-09-03T13:18:08.332Z,18.69
2022-09-03T13:20:49.965Z,18.71
2022-09-03T13:23:25.752Z,18.72
2022-09-03T13:26:06.656Z,18.70
2022-09-03T13:28:39.776Z,18.73
2022-09-03T13:31:22.199Z,18.74
2022-09-03T13:33:52.614Z,18.74
2022-09-03T13:36:21.539Z,18.72
2022-09-03T13:39:03.093Z,18.69
2022-09-03T13:41:36.428Z,18.70
2022-09-03T13:44:09.153Z,18.66
2022-09-03T13:46:38.598Z,18.56
2022-09-03T13:49:43.884Z,18.54
2022-09-03T13:52:20.274Z,18.55
2022-09-03T13:54:51.790Z,18.50
2022-09-03T13:57:24.231Z,18.49
2022-09-03T14:00:00.122Z,18.40
2022-09-03T14:02:33.106Z,18.37
2022-09-03T14:05:05.820Z,18.33
2022-09-03T14:07:46.139Z,18.33
2022-09-03T14:10:15.308Z,18.33
2022-09-03T14:12:47.219Z,18.29
2022-09-03T14:15:19.687Z,18.31
2022-09-03T14:18:05.733Z,18.32
2022-09-03T14:20:38.407Z,18.33
2022-09-03T14:23:18.701Z,18.33
2022-09-03T14:25:59.648Z,18.34
2022-09-03T14:28:31.168Z,18.29
2022-09-03T14:31:12.554Z,18.32
2022-09-03T14:34:02.276Z,18.33
2022-09-03T14:36:33.429Z,18.35
2022-09-03T14:39:02.844Z,18.28
2022-09-03T14:41:41.538Z,18.24
2022-09-03T14:44:16.819Z,18.27
2022-09-03T14:46:49.335Z,18.26
2022-09-03T14:49:22.534Z,18.28
2022-09-03T14:51:48.886Z,18.35
2022-09-03T14:54:30.869Z,18.36
2022-09-03T14:57:13.054Z,18.42
2022-09-03T14:59:54.941Z,18.43
2022-09-03T15:02:24.368Z,18.48
2022-09-03T15:04:57.303Z,18.47
2022-09-03T15:07:59.141Z,18.50
2022-09-03T15:10:25.697Z,18.57
2022-09-03T15:15:21.877Z,18.63
2022-09-03T15:18:03.624Z,18.64
2022-09-03T15:20:37.559Z,18.63
2022-09-03T15:23:04.025Z,18.64
2022-09-03T15:25:52.235Z,18.61
2022-09-03T15:28:18.586Z,18.72
2022-09-03T15:30:51.669Z,18.69
2022-09-03T15:33:17.988Z,18.67
2022-09-03T15:35:53.421Z,18.71
2022-09-03T15:38:20.001Z,18.67
2022-09-03T15:40:46.324Z,18.60
2022-09-03T15:43:30.297Z,18.65
2022-09-03T15:46:29.637Z,18.63
2022-09-03T15:49:03.372Z,18.50
2022-09-03T15:51:43.184Z,18.42
2022-09-03T15:54:16.338Z,18.33
2022-09-03T15:56:53.021Z,18.27
2022-09-03T15:59:35.857Z,18.28
2022-09-03T16:02:18.258Z,18.30
2022-09-03T16:04:56.392Z,18.44
2022-09-03T16:07:42.264Z,18.38
2022-09-03T16:10:28.232Z,18.29
2022-09-03T16:13:13.794Z,18.28
2022-09-03T16:15:46.998Z,18.25
2022-09-03T16:18:22.430Z,18.25
2022-09-03T16:21:02.588Z,18.26
2022-09-03T16:23:33.062Z,18.22
2022-09-03T16:26:25.795Z,18.19
2022-09-03T16:28:53.614Z,18.14
2022-09-03T16:31:46.564Z,18.22
2022-09-03T16:34:21.929Z,18.14
2022-09-03T16:36:51.326Z,18.13
2022-09-03T16:39:31.584Z,18.14
2022-09-03T16:42:03.048Z,18.19
2022-09-03T16:44:32.572Z,18.25
2022-09-03T16:47:14.916Z,18.23
2022-09-03T16:50:01.430Z,18.24
2022-09-03T16:52:38.088Z,18.25
2022-09-03T16:55:08.590Z,18.26
2022-09-03T16:57:46.998Z,18.32
2022-09-03T17:00:14.886Z,18.28
2022-09-03T17:02:50.122Z,18.27
2022-09-03T17:05:31.842Z,18.32
2022-09-03T17:08:01.224Z,18.32
2022-09-03T17:10:27.646Z,18.32
2022-09-03T17:13:12.806Z,18.30
2022-09-03T17:15:45.412Z,18.28
2022-09-03T17:18:14.895Z,18.27
2022-09-03T17:20:49.055Z,18.23
2022-09-03T17:23:45.204Z,18.29
2022-09-03T17:26:31.810Z,18.24
2022-09-03T17:29:08.440Z,18.15
2022-09-03T17:31:34.840Z,18.10
2022-09-03T17:34:07.583Z,18.05
2022-09-03T17:36:38.684Z,17.92
2022-09-03T17:39:24.115Z,17.99
2022-09-03T17:41:55.242Z,17.82
2022-09-03T17:44:27.662Z,17.75
2022-09-03T17:47:07.174Z,17.71
2022-09-03T17:50:05.702Z,17.56
2022-09-03T17:52:44.111Z,17.53
2022-09-03T17:55:29.327Z,17.35
2022-09-03T17:58:16.404Z,17.29
2022-09-03T18:00:42.744Z,17.29
2022-09-03T18:03:28.005Z,17.43
2022-09-03T18:06:01.412Z,17.31
2022-09-03T18:08:36.274Z,17.19
2022-09-03T18:11:33.977Z,17.19
2022-09-03T18:14:05.544Z,16.99
2022-09-03T18:16:32.854Z,16.98
2022-09-03T18:19:03.779Z,17.06
2022-09-03T18:21:51.766Z,16.94
2022-09-03T18:24:53.820Z,16.83
2022-09-03T18:27:47.789Z,16.77
2022-09-03T18:30:36.039Z,16.63
2022-09-03T18:33:20.997Z,16.64
2022-09-03T18:36:06.461Z,16.89
2022-09-03T18:38:55.734Z,17.03
2022-09-03T18:41:46.574Z,17.21
2022-09-03T18:44:41.498Z,17.20
2022-09-03T18:50:42.895Z,17.19
2022-09-03T18:53:32.881Z,17.17
2022-09-03T18:56:47.276Z,17.17
2022-09-03T18:59:51.176Z,17.09
2022-09-03T19:02:48.164Z,17.04
2022-09-03T19:05:49.309Z,17.07
2022-09-03T19:08:40.217Z,17.05
2022-09-03T19:11:43.828Z,16.97
2022-09-03T19:14:36.166Z,16.93
2022-09-03T19:17:59.429Z,16.89
2022-09-03T19:20:48.804Z,16.89
2022-09-03T19:23:33.738Z,16.79
2022-09-03T19:26:23.086Z,16.76
2022-09-03T19:29:11.341Z,16.79
2022-09-03T19:32:05.683Z,16.76
2022-09-03T19:35:05.804Z,16.61
2022-09-03T19:37:59.114Z,16.58
2022-09-03T19:40:43.952Z,16.73
2022-09-03T19:43:53.167Z,16.59
2022-09-03T19:46:56.766Z,16.65
2022-09-03T19:49:58.657Z,16.48
2022-09-03T19:52:55.619Z,16.44
2022-09-03T19:55:43.384Z,16.45
2022-09-03T19:58:42.659Z,16.35
2022-09-03T20:01:29.140Z,16.36
2022-09-03T20:04:18.390Z,16.11
2022-09-03T20:07:04.199Z,16.27
2022-09-03T20:09:52.076Z,16.21
2022-09-03T20:12:21.007Z,16.36
2022-09-03T20:14:47.444Z,16.29
2022-09-03T20:17:13.840Z,16.19
2022-09-03T20:19:49.287Z,16.34
2022-09-03T20:22:23.722Z,16.20
2022-09-03T20:25:07.348Z,16.37
2022-09-03T20:27:41.089Z,16.33
2022-09-03T20:30:16.105Z,16.03
2022-09-03T20:33:07.699Z,16.16
2022-09-03T20:35:52.450Z,16.25
2022-09-03T20:38:37.626Z,16.15
2022-09-03T20:41:22.887Z,16.31
2022-09-03T20:43:56.418Z,16.37
2022-09-03T20:46:23.191Z,16.39
2022-09-03T20:49:09.837Z,16.42
2022-09-03T20:51:41.082Z,16.53
2022-09-03T20:54:11.130Z,16.58
2022-09-03T20:56:55.959Z,16.56
2022-09-03T20:59:37.676Z,16.57
2022-09-03T21:02:42.821Z,16.59
2022-09-03T21:05:27.719Z,16.65
2022-09-03T21:08:17.360Z,16.64
2022-09-03T21:10:55.606Z,16.70
2022-09-03T21:13:32.723Z,16.59
2022-09-03T21:16:15.172Z,16.61
2022-09-03T21:18:51.488Z,16.60
2022-09-03T21:21:36.719Z,16.60
2022-09-03T21:24:16.802Z,16.47
2022-09-03T21:26:46.272Z,16.49
2022-09-03T21:29:22.266Z,16.56
2022-09-03T21:31:54.814Z,16.47
2022-09-03T21:34:26.261Z,16.50
2022-09-03T21:36:52.912Z,16.41
2022-09-03T21:39:28.138Z,16.43
2022-09-03T21:42:07.344Z,16.37
2022-09-03T21:44:46.804Z,16.35
2022-09-03T21:47:15.082Z,16.33
2022-09-03T21:50:00.687Z,16.39
2022-09-03T21:52:31.271Z,16.41
2022-09-03T21:54:57.620Z,16.54
2022-09-03T21:57:40.386Z,16.51
2022-09-03T22:00:19.571Z,16.33
2022-09-03T22:02:46.801Z,16.46
2022-09-03T22:05:14.052Z,16.40
2022-09-03T22:07:58.892Z,16.27
2022-09-03T22:10:37.400Z,16.24
2022-09-03T22:13:16.502Z,16.35
2022-09-03T22:15:50.574Z,16.33
2022-09-03T22:18:28.902Z,16.19
2022-09-03T22:21:01.137Z,16.45
2022-09-03T22:23:55.360Z,16.37
2022-09-03T22:26:43.270Z,16.40
2022-09-03T22:29:15.286Z,16.46
2022-09-03T22:31:48.936Z,16.47
2022-09-03T22:34:15.299Z,16.54
2022-09-03T22:36:47.106Z,16.53
2022-09-03T22:39:19.764Z,16.54
2022-09-03T22:41:46.122Z,16.63
2022-09-03T22:44:32.078Z,16.58
2022-09-03T22:47:08.157Z,16.61
2022-09-03T22:49:40.260Z,16.66
2022-09-03T22:52:28.856Z,16.65
2022-09-03T22:55:06.983Z,16.77
2022-09-03T22:57:36.888Z,16.67
2022-09-03T23:00:08.261Z,16.71
2022-09-03T23:02:35.289Z,16.74
2022-09-03T23:05:07.676Z,16.74
2022-09-03T23:07:46.119Z,16.79
2022-09-03T23:10:14.636Z,16.74
2022-09-03T23:12:59.172Z,16.72
2022-09-03T23:15:30.141Z,16.71
2022-09-03T23:18:08.913Z,16.69
2022-09-03T23:20:38.694Z,16.68
2022-09-03T23:23:12.798Z,16.64
2022-09-03T23:25:53.806Z,16.61
2022-09-03T23:28:29.108Z,16.57
2022-09-03T23:31:11.884Z,16.49
2022-09-03T23:33:39.054Z,16.50
2022-09-03T23:36:23.133Z,16.52
2022-09-03T23:39:09.341Z,16.42
2022-09-03T23:41:43.176Z,16.39
2022-09-03T23:44:30.905Z,16.51
2022-09-03T23:47:06.929Z,16.50
2022-09-03T23:49:36.392Z,16.41
2022-09-03T23:52:21.590Z,16.45
2022-09-03T23:54:49.233Z,16.46
2022-09-03T23:57:18.363Z,16.36
